sensor_id;sensor_type;location;lat;lon;timestamp;P1;durP1;ratioP1;P2;durP2;ratioP2
67363;SDS011;54250;45.572;38.086;2022-07-29T00:00:46;34.13;;;16.50;;
67363;SDS011;54250;45.572;38.086;2022-07-29T00:03:13;37.97;;;18.85;;
67363;SDS011;54250;45.572;38.086;2022-07-29T00:05:39;47.10;;;19.45;;
67363;SDS011;54250;45.572;38.086;2022-07-29T00:08:07;44.85;;;20.92;;
67363;SDS011;54250;45.572;38.086;2022-07-29T00:10:33;30.52;;;15.30;;
67363;SDS011;54250;45.572;38.086;2022-07-29T00:13:00;20.05;;;12.82;;
67363;SDS011;54250;45.572;38.086;2022-07-29T00:15:26;28.10;;;14.07;;
67363;SDS011;54250;45.572;38.086;2022-07-29T00:17:53;26.08;;;14.73;;
67363;SDS011;54250;45.572;38.086;2022-07-29T00:20:19;35.53;;;15.77;;
67363;SDS011;54250;45.572;38.086;2022-07-29T00:22:45;26.98;;;14.48;;
67363;SDS011;54250;45.572;38.086;2022-07-29T00:25:11;34.22;;;17.67;;
67363;SDS011;54250;45.572;38.086;2022-07-29T00:27:38;31.40;;;18.30;;
67363;SDS011;54250;45.572;38.086;2022-07-29T00:30:05;32.47;;;16.77;;
67363;SDS011;54250;45.572;38.086;2022-07-29T00:32:33;41.78;;;18.90;;
67363;SDS011;54250;45.572;38.086;2022-07-29T00:34:59;44.20;;;20.75;;
67363;SDS011;54250;45.572;38.086;2022-07-29T00:37:44;42.67;;;20.85;;
67363;SDS011;54250;45.572;38.086;2022-07-29T00:40:10;36.25;;;19.48;;
67363;SDS011;54250;45.572;38.086;2022-07-29T00:42:46;37.80;;;20.05;;
67363;SDS011;54250;45.572;38.086;2022-07-29T00:45:14;42.90;;;21.25;;
67363;SDS011;54250;45.572;38.086;2022-07-29T00:47:40;48.15;;;24.67;;
67363;SDS011;54250;45.572;38.086;2022-07-29T00:50:07;57.00;;;24.83;;
67363;SDS011;54250;45.572;38.086;2022-07-29T00:52:36;68.50;;;25.63;;
67363;SDS011;54250;45.572;38.086;2022-07-29T00:55:05;51.53;;;23.52;;
67363;SDS011;54250;45.572;38.086;2022-07-29T00:57:33;75.13;;;27.15;;
67363;SDS011;54250;45.572;38.086;2022-07-29T01:00:00;108.00;;;27.30;;
67363;SDS011;54250;45.572;38.086;2022-07-29T01:02:26;105.90;;;27.95;;
67363;SDS011;54250;45.572;38.086;2022-07-29T01:04:52;336.48;;;38.15;;
67363;SDS011;54250;45.572;38.086;2022-07-29T01:07:19;292.33;;;32.63;;
67363;SDS011;54250;45.572;38.086;2022-07-29T01:09:45;431.65;;;37.50;;
67363;SDS011;54250;45.572;38.086;2022-07-29T01:12:19;400.25;;;35.13;;
67363;SDS011;54250;45.572;38.086;2022-07-29T01:14:48;339.60;;;29.08;;
67363;SDS011;54250;45.572;38.086;2022-07-29T01:17:20;247.40;;;32.03;;
67363;SDS011;54250;45.572;38.086;2022-07-29T01:19:48;59.97;;;20.25;;
67363;SDS011;54250;45.572;38.086;2022-07-29T01:30:46;131.27;;;20.90;;
67363;SDS011;54250;45.572;38.086;2022-07-29T01:33:17;156.15;;;24.08;;
67363;SDS011;54250;45.572;38.086;2022-07-29T01:36:05;275.40;;;31.55;;
67363;SDS011;54250;45.572;38.086;2022-07-29T01:38:54;410.02;;;39.30;;
67363;SDS011;54250;45.572;38.086;2022-07-29T01:41:25;502.38;;;43.70;;
67363;SDS011;54250;45.572;38.086;2022-07-29T01:43:56;322.55;;;32.72;;
67363;SDS011;54250;45.572;38.086;2022-07-29T01:46:36;611.30;;;45.67;;
67363;SDS011;54250;45.572;38.086;2022-07-29T01:49:16;512.50;;;35.65;;
67363;SDS011;54250;45.572;38.086;2022-07-29T01:51:53;353.33;;;35.15;;
67363;SDS011;54250;45.572;38.086;2022-07-29T01:54:34;470.75;;;42.42;;
67363;SDS011;54250;45.572;38.086;2022-07-29T01:57:04;311.70;;;30.25;;
67363;SDS011;54250;45.572;38.086;2022-07-29T01:59:33;353.55;;;27.88;;
67363;SDS011;54250;45.572;38.086;2022-07-29T02:02:01;736.45;;;52.60;;
67363;SDS011;54250;45.572;38.086;2022-07-29T02:04:30;180.32;;;26.92;;
67363;SDS011;54250;45.572;38.086;2022-07-29T02:07:03;504.25;;;33.75;;
67363;SDS011;54250;45.572;38.086;2022-07-29T02:09:32;103.93;;;18.05;;
67363;SDS011;54250;45.572;38.086;2022-07-29T02:12:01;360.85;;;27.35;;
67363;SDS011;54250;45.572;38.086;2022-07-29T02:14:30;43.40;;;18.08;;
67363;SDS011;54250;45.572;38.086;2022-07-29T02:17:00;57.78;;;20.38;;
67363;SDS011;54250;45.572;38.086;2022-07-29T02:19:28;52.80;;;18.30;;
67363;SDS011;54250;45.572;38.086;2022-07-29T02:21:56;57.97;;;19.02;;
67363;SDS011;54250;45.572;38.086;2022-07-29T02:24:24;200.10;;;20.98;;
67363;SDS011;54250;45.572;38.086;2022-07-29T02:26:52;202.85;;;21.50;;
67363;SDS011;54250;45.572;38.086;2022-07-29T02:29:23;174.98;;;20.33;;
67363;SDS011;54250;45.572;38.086;2022-07-29T02:31:51;223.25;;;20.92;;
67363;SDS011;54250;45.572;38.086;2022-07-29T02:34:19;445.95;;;34.90;;
67363;SDS011;54250;45.572;38.086;2022-07-29T02:36:46;329.88;;;30.20;;
67363;SDS011;54250;45.572;38.086;2022-07-29T02:39:13;481.60;;;31.45;;
67363;SDS011;54250;45.572;38.086;2022-07-29T02:41:44;301.30;;;27.70;;
67363;SDS011;54250;45.572;38.086;2022-07-29T02:44:16;371.63;;;39.67;;
67363;SDS011;54250;45.572;38.086;2022-07-29T02:52:27;129.32;;;28.58;;
67363;SDS011;54250;45.572;38.086;2022-07-29T02:55:29;198.63;;;31.25;;
67363;SDS011;54250;45.572;38.086;2022-07-29T03:00:34;48.00;;;22.38;;
67363;SDS011;54250;45.572;38.086;2022-07-29T03:03:04;45.80;;;20.83;;
67363;SDS011;54250;45.572;38.086;2022-07-29T03:05:34;42.53;;;18.63;;
67363;SDS011;54250;45.572;38.086;2022-07-29T03:08:03;29.77;;;15.80;;
67363;SDS011;54250;45.572;38.086;2022-07-29T03:10:31;19.73;;;11.70;;
67363;SDS011;54250;45.572;38.086;2022-07-29T03:12:57;13.98;;;7.63;;
67363;SDS011;54250;45.572;38.086;2022-07-29T03:15:24;9.90;;;6.25;;
67363;SDS011;54250;45.572;38.086;2022-07-29T03:17:51;49.00;;;7.13;;
67363;SDS011;54250;45.572;38.086;2022-07-29T03:20:17;9.57;;;4.43;;
67363;SDS011;54250;45.572;38.086;2022-07-29T03:22:44;6.53;;;4.95;;
67363;SDS011;54250;45.572;38.086;2022-07-29T03:25:14;10.77;;;5.10;;
67363;SDS011;54250;45.572;38.086;2022-07-29T03:27:43;5.03;;;3.60;;
67363;SDS011;54250;45.572;38.086;2022-07-29T03:30:09;5.63;;;2.80;;
67363;SDS011;54250;45.572;38.086;2022-07-29T03:32:37;3.90;;;2.80;;
67363;SDS011;54250;45.572;38.086;2022-07-29T03:35:04;4.00;;;3.13;;
67363;SDS011;54250;45.572;38.086;2022-07-29T03:37:30;4.85;;;2.70;;
67363;SDS011;54250;45.572;38.086;2022-07-29T03:39:57;8.68;;;3.22;;
67363;SDS011;54250;45.572;38.086;2022-07-29T03:42:24;55.15;;;3.97;;
67363;SDS011;54250;45.572;38.086;2022-07-29T03:44:55;45.78;;;3.65;;
67363;SDS011;54250;45.572;38.086;2022-07-29T03:47:24;22.20;;;3.50;;
67363;SDS011;54250;45.572;38.086;2022-07-29T03:49:54;27.45;;;3.15;;
67363;SDS011;54250;45.572;38.086;2022-07-29T03:52:30;31.13;;;2.80;;
67363;SDS011;54250;45.572;38.086;2022-07-29T03:54:56;36.15;;;3.47;;
67363;SDS011;54250;45.572;38.086;2022-07-29T03:57:23;29.70;;;4.13;;
67363;SDS011;54250;45.572;38.086;2022-07-29T03:59:52;9.00;;;3.00;;
67363;SDS011;54250;45.572;38.086;2022-07-29T04:02:19;4.70;;;2.75;;
67363;SDS011;54250;45.572;38.086;2022-07-29T04:04:46;2.33;;;2.05;;
67363;SDS011;54250;45.572;38.086;2022-07-29T04:07:14;3.42;;;2.13;;
67363;SDS011;54250;45.572;38.086;2022-07-29T04:09:41;2.10;;;1.90;;
67363;SDS011;54250;45.572;38.086;2022-07-29T04:12:07;4.20;;;2.30;;
67363;SDS011;54250;45.572;38.086;2022-07-29T04:14:34;2.00;;;1.85;;
67363;SDS011;54250;45.572;38.086;2022-07-29T04:17:01;3.60;;;2.10;;
67363;SDS011;54250;45.572;38.086;2022-07-29T04:19:27;2.40;;;2.13;;
67363;SDS011;54250;45.572;38.086;2022-07-29T04:21:54;2.63;;;2.00;;
67363;SDS011;54250;45.572;38.086;2022-07-29T04:24:20;6.45;;;1.80;;
67363;SDS011;54250;45.572;38.086;2022-07-29T04:26:46;2.08;;;1.88;;
67363;SDS011;54250;45.572;38.086;2022-07-29T04:29:13;4.97;;;2.88;;
67363;SDS011;54250;45.572;38.086;2022-07-29T04:31:40;4.07;;;3.00;;
67363;SDS011;54250;45.572;38.086;2022-07-29T04:34:06;5.63;;;2.85;;
67363;SDS011;54250;45.572;38.086;2022-07-29T04:36:34;3.50;;;2.70;;
67363;SDS011;54250;45.572;38.086;2022-07-29T04:39:00;6.90;;;3.13;;
67363;SDS011;54250;45.572;38.086;2022-07-29T04:41:28;4.68;;;2.75;;
67363;SDS011;54250;45.572;38.086;2022-07-29T04:43:55;7.90;;;2.60;;
67363;SDS011;54250;45.572;38.086;2022-07-29T04:46:21;7.20;;;2.80;;
67363;SDS011;54250;45.572;38.086;2022-07-29T04:48:47;3.78;;;2.90;;
67363;SDS011;54250;45.572;38.086;2022-07-29T04:51:16;3.42;;;2.75;;
67363;SDS011;54250;45.572;38.086;2022-07-29T04:53:42;3.33;;;2.80;;
67363;SDS011;54250;45.572;38.086;2022-07-29T04:56:08;9.27;;;4.10;;
67363;SDS011;54250;45.572;38.086;2022-07-29T04:58:35;6.72;;;4.50;;
67363;SDS011;54250;45.572;38.086;2022-07-29T05:01:01;8.98;;;5.05;;
67363;SDS011;54250;45.572;38.086;2022-07-29T05:03:28;5.72;;;4.88;;
67363;SDS011;54250;45.572;38.086;2022-07-29T05:05:54;5.35;;;4.47;;
67363;SDS011;54250;45.572;38.086;2022-07-29T05:08:20;8.10;;;4.90;;
67363;SDS011;54250;45.572;38.086;2022-07-29T05:10:46;7.20;;;5.22;;
67363;SDS011;54250;45.572;38.086;2022-07-29T05:13:12;6.32;;;4.40;;
67363;SDS011;54250;45.572;38.086;2022-07-29T05:15:38;5.13;;;4.00;;
67363;SDS011;54250;45.572;38.086;2022-07-29T05:18:05;8.25;;;2.85;;
67363;SDS011;54250;45.572;38.086;2022-07-29T05:20:31;5.70;;;2.65;;
67363;SDS011;54250;45.572;38.086;2022-07-29T05:22:58;3.55;;;3.15;;
67363;SDS011;54250;45.572;38.086;2022-07-29T05:25:26;14.30;;;2.72;;
67363;SDS011;54250;45.572;38.086;2022-07-29T05:27:53;4.13;;;3.33;;
67363;SDS011;54250;45.572;38.086;2022-07-29T05:30:19;7.47;;;3.28;;
67363;SDS011;54250;45.572;38.086;2022-07-29T05:32:45;3.67;;;2.72;;
67363;SDS011;54250;45.572;38.086;2022-07-29T05:35:12;3.38;;;2.78;;
67363;SDS011;54250;45.572;38.086;2022-07-29T05:37:39;7.93;;;3.00;;
67363;SDS011;54250;45.572;38.086;2022-07-29T05:40:06;7.07;;;2.90;;
67363;SDS011;54250;45.572;38.086;2022-07-29T05:42:35;3.78;;;2.58;;
67363;SDS011;54250;45.572;38.086;2022-07-29T05:45:01;3.22;;;2.50;;
67363;SDS011;54250;45.572;38.086;2022-07-29T05:47:28;5.00;;;2.70;;
67363;SDS011;54250;45.572;38.086;2022-07-29T05:49:54;2.90;;;1.92;;
67363;SDS011;54250;45.572;38.086;2022-07-29T05:52:20;2.92;;;2.05;;
67363;SDS011;54250;45.572;38.086;2022-07-29T05:54:47;6.15;;;2.10;;
67363;SDS011;54250;45.572;38.086;2022-07-29T05:57:19;3.78;;;2.47;;
67363;SDS011;54250;45.572;38.086;2022-07-29T05:59:47;4.13;;;2.28;;
67363;SDS011;54250;45.572;38.086;2022-07-29T06:02:14;2.63;;;1.90;;
67363;SDS011;54250;45.572;38.086;2022-07-29T06:04:41;4.75;;;2.25;;
67363;SDS011;54250;45.572;38.086;2022-07-29T06:07:07;10.88;;;2.42;;
67363;SDS011;54250;45.572;38.086;2022-07-29T06:09:34;5.00;;;2.20;;
67363;SDS011;54250;45.572;38.086;2022-07-29T06:12:00;7.32;;;2.10;;
67363;SDS011;54250;45.572;38.086;2022-07-29T06:14:27;7.50;;;2.47;;
67363;SDS011;54250;45.572;38.086;2022-07-29T06:16:53;4.40;;;2.20;;
67363;SDS011;54250;45.572;38.086;2022-07-29T06:19:20;3.85;;;2.30;;
67363;SDS011;54250;45.572;38.086;2022-07-29T06:21:46;4.05;;;2.40;;
67363;SDS011;54250;45.572;38.086;2022-07-29T06:24:14;2.63;;;2.17;;
67363;SDS011;54250;45.572;38.086;2022-07-29T06:26:40;5.28;;;1.95;;
67363;SDS011;54250;45.572;38.086;2022-07-29T06:29:07;2.30;;;2.10;;
67363;SDS011;54250;45.572;38.086;2022-07-29T06:31:35;5.20;;;2.17;;
67363;SDS011;54250;45.572;38.086;2022-07-29T06:34:02;5.28;;;2.25;;
67363;SDS011;54250;45.572;38.086;2022-07-29T06:36:29;7.78;;;2.13;;
67363;SDS011;54250;45.572;38.086;2022-07-29T06:38:55;2.88;;;1.92;;
67363;SDS011;54250;45.572;38.086;2022-07-29T06:41:21;2.53;;;1.90;;
67363;SDS011;54250;45.572;38.086;2022-07-29T06:43:48;6.75;;;2.00;;
67363;SDS011;54250;45.572;38.086;2022-07-29T06:46:16;1.85;;;1.75;;
67363;SDS011;54250;45.572;38.086;2022-07-29T06:48:43;5.40;;;2.08;;
67363;SDS011;54250;45.572;38.086;2022-07-29T06:51:11;2.55;;;1.80;;
67363;SDS011;54250;45.572;38.086;2022-07-29T06:53:37;16.25;;;2.30;;
67363;SDS011;54250;45.572;38.086;2022-07-29T06:56:05;10.95;;;2.42;;
67363;SDS011;54250;45.572;38.086;2022-07-29T06:58:33;2.97;;;1.88;;
67363;SDS011;54250;45.572;38.086;2022-07-29T07:01:01;6.75;;;2.00;;
67363;SDS011;54250;45.572;38.086;2022-07-29T07:03:29;5.68;;;2.15;;
67363;SDS011;54250;45.572;38.086;2022-07-29T07:05:55;6.38;;;2.05;;
67363;SDS011;54250;45.572;38.086;2022-07-29T07:08:21;5.13;;;1.83;;
67363;SDS011;54250;45.572;38.086;2022-07-29T07:10:49;4.32;;;1.95;;
67363;SDS011;54250;45.572;38.086;2022-07-29T07:13:16;5.68;;;1.85;;
67363;SDS011;54250;45.572;38.086;2022-07-29T07:15:43;3.28;;;2.05;;
67363;SDS011;54250;45.572;38.086;2022-07-29T07:18:10;3.00;;;1.92;;
67363;SDS011;54250;45.572;38.086;2022-07-29T07:20:36;3.33;;;1.90;;
67363;SDS011;54250;45.572;38.086;2022-07-29T07:23:03;4.07;;;1.75;;
67363;SDS011;54250;45.572;38.086;2022-07-29T07:25:29;2.60;;;2.00;;
67363;SDS011;54250;45.572;38.086;2022-07-29T07:27:55;2.42;;;1.90;;
67363;SDS011;54250;45.572;38.086;2022-07-29T07:30:21;6.20;;;2.17;;
67363;SDS011;54250;45.572;38.086;2022-07-29T07:32:47;3.38;;;1.90;;
67363;SDS011;54250;45.572;38.086;2022-07-29T07:35:14;2.45;;;2.10;;
67363;SDS011;54250;45.572;38.086;2022-07-29T07:37:40;5.43;;;2.20;;
67363;SDS011;54250;45.572;38.086;2022-07-29T07:40:07;5.13;;;1.80;;
67363;SDS011;54250;45.572;38.086;2022-07-29T07:42:35;6.88;;;2.13;;
67363;SDS011;54250;45.572;38.086;2022-07-29T07:45:01;3.65;;;2.00;;
67363;SDS011;54250;45.572;38.086;2022-07-29T07:47:27;4.85;;;1.98;;
67363;SDS011;54250;45.572;38.086;2022-07-29T07:49:53;9.07;;;2.08;;
67363;SDS011;54250;45.572;38.086;2022-07-29T07:52:20;3.72;;;1.92;;
67363;SDS011;54250;45.572;38.086;2022-07-29T07:54:46;5.60;;;1.90;;
67363;SDS011;54250;45.572;38.086;2022-07-29T07:57:14;4.22;;;1.65;;
67363;SDS011;54250;45.572;38.086;2022-07-29T07:59:40;2.70;;;1.90;;
67363;SDS011;54250;45.572;38.086;2022-07-29T08:02:07;7.90;;;2.80;;
67363;SDS011;54250;45.572;38.086;2022-07-29T08:04:34;2.65;;;2.00;;
67363;SDS011;54250;45.572;38.086;2022-07-29T08:07:01;3.03;;;1.98;;
67363;SDS011;54250;45.572;38.086;2022-07-29T08:09:28;3.83;;;1.75;;
67363;SDS011;54250;45.572;38.086;2022-07-29T08:11:55;2.83;;;1.75;;
67363;SDS011;54250;45.572;38.086;2022-07-29T08:14:21;2.90;;;1.90;;
67363;SDS011;54250;45.572;38.086;2022-07-29T08:16:47;4.50;;;1.95;;
67363;SDS011;54250;45.572;38.086;2022-07-29T08:19:13;2.40;;;1.92;;
67363;SDS011;54250;45.572;38.086;2022-07-29T08:21:40;5.32;;;2.17;;
67363;SDS011;54250;45.572;38.086;2022-07-29T08:24:06;7.50;;;2.03;;
67363;SDS011;54250;45.572;38.086;2022-07-29T08:26:51;3.00;;;1.90;;
67363;SDS011;54250;45.572;38.086;2022-07-29T08:29:17;8.27;;;2.17;;
67363;SDS011;54250;45.572;38.086;2022-07-29T08:31:43;3.20;;;2.03;;
67363;SDS011;54250;45.572;38.086;2022-07-29T08:34:10;2.85;;;2.10;;
67363;SDS011;54250;45.572;38.086;2022-07-29T08:36:37;2.88;;;2.08;;
67363;SDS011;54250;45.572;38.086;2022-07-29T08:39:03;6.63;;;2.20;;
67363;SDS011;54250;45.572;38.086;2022-07-29T08:41:30;3.72;;;2.25;;
67363;SDS011;54250;45.572;38.086;2022-07-29T08:43:56;5.05;;;2.40;;
67363;SDS011;54250;45.572;38.086;2022-07-29T08:46:22;7.22;;;2.78;;
67363;SDS011;54250;45.572;38.086;2022-07-29T08:48:49;6.10;;;2.42;;
67363;SDS011;54250;45.572;38.086;2022-07-29T08:51:16;3.60;;;2.10;;
67363;SDS011;54250;45.572;38.086;2022-07-29T08:53:45;7.20;;;2.50;;
67363;SDS011;54250;45.572;38.086;2022-07-29T08:56:16;5.60;;;2.28;;
67363;SDS011;54250;45.572;38.086;2022-07-29T08:58:43;6.85;;;2.97;;
67363;SDS011;54250;45.572;38.086;2022-07-29T09:01:13;7.47;;;2.70;;
67363;SDS011;54250;45.572;38.086;2022-07-29T09:03:43;5.80;;;2.88;;
67363;SDS011;54250;45.572;38.086;2022-07-29T09:06:14;6.55;;;2.20;;
67363;SDS011;54250;45.572;38.086;2022-07-29T09:08:42;3.20;;;2.47;;
67363;SDS011;54250;45.572;38.086;2022-07-29T09:11:09;10.75;;;2.20;;
67363;SDS011;54250;45.572;38.086;2022-07-29T09:13:36;5.93;;;2.28;;
67363;SDS011;54250;45.572;38.086;2022-07-29T09:16:03;7.50;;;2.30;;
67363;SDS011;54250;45.572;38.086;2022-07-29T09:18:40;2.65;;;2.28;;
67363;SDS011;54250;45.572;38.086;2022-07-29T09:21:12;9.98;;;2.45;;
67363;SDS011;54250;45.572;38.086;2022-07-29T09:24:11;3.92;;;2.25;;
67363;SDS011;54250;45.572;38.086;2022-07-29T09:26:43;4.63;;;2.33;;
67363;SDS011;54250;45.572;38.086;2022-07-29T09:29:12;9.53;;;2.23;;
67363;SDS011;54250;45.572;38.086;2022-07-29T09:31:44;5.68;;;2.38;;
67363;SDS011;54250;45.572;38.086;2022-07-29T09:34:12;7.60;;;2.33;;
67363;SDS011;54250;45.572;38.086;2022-07-29T09:36:43;6.25;;;2.28;;
67363;SDS011;54250;45.572;38.086;2022-07-29T09:39:32;2.95;;;2.15;;
67363;SDS011;54250;45.572;38.086;2022-07-29T09:42:04;6.85;;;2.55;;
67363;SDS011;54250;45.572;38.086;2022-07-29T09:44:41;4.32;;;2.20;;
67363;SDS011;54250;45.572;38.086;2022-07-29T09:47:13;5.65;;;2.40;;
67363;SDS011;54250;45.572;38.086;2022-07-29T09:52:18;8.70;;;2.35;;
67363;SDS011;54250;45.572;38.086;2022-07-29T09:54:44;3.63;;;2.30;;
67363;SDS011;54250;45.572;38.086;2022-07-29T09:57:24;2.45;;;2.17;;
67363;SDS011;54250;45.572;38.086;2022-07-29T10:00:11;7.25;;;2.30;;
67363;SDS011;54250;45.572;38.086;2022-07-29T10:02:40;4.45;;;2.33;;
67363;SDS011;54250;45.572;38.086;2022-07-29T10:05:19;6.47;;;2.50;;
67363;SDS011;54250;45.572;38.086;2022-07-29T10:10:18;12.45;;;2.65;;
67363;SDS011;54250;45.572;38.086;2022-07-29T10:12:55;5.80;;;2.30;;
67363;SDS011;54250;45.572;38.086;2022-07-29T10:15:23;3.67;;;2.05;;
67363;SDS011;54250;45.572;38.086;2022-07-29T10:17:51;3.92;;;2.63;;
67363;SDS011;54250;45.572;38.086;2022-07-29T10:20:19;8.73;;;2.30;;
67363;SDS011;54250;45.572;38.086;2022-07-29T10:22:46;6.95;;;2.55;;
67363;SDS011;54250;45.572;38.086;2022-07-29T10:25:13;8.88;;;2.80;;
67363;SDS011;54250;45.572;38.086;2022-07-29T10:27:40;5.30;;;2.10;;
67363;SDS011;54250;45.572;38.086;2022-07-29T10:30:07;3.10;;;2.38;;
67363;SDS011;54250;45.572;38.086;2022-07-29T10:38:15;2.88;;;2.33;;
67363;SDS011;54250;45.572;38.086;2022-07-29T10:43:47;3.17;;;2.42;;
67363;SDS011;54250;45.572;38.086;2022-07-29T10:46:16;4.38;;;2.53;;
67363;SDS011;54250;45.572;38.086;2022-07-29T10:54:42;3.95;;;2.55;;
67363;SDS011;54250;45.572;38.086;2022-07-29T10:59:40;5.78;;;2.45;;
67363;SDS011;54250;45.572;38.086;2022-07-29T11:05:19;5.10;;;2.33;;
67363;SDS011;54250;45.572;38.086;2022-07-29T11:08:16;6.68;;;2.38;;
67363;SDS011;54250;45.572;38.086;2022-07-29T11:10:35;3.10;;;2.03;;
67363;SDS011;54250;45.572;38.086;2022-07-29T11:13:01;13.23;;;3.05;;
67363;SDS011;54250;45.572;38.086;2022-07-29T11:15:27;8.55;;;2.30;;
67363;SDS011;54250;45.572;38.086;2022-07-29T11:25:43;4.65;;;2.47;;
67363;SDS011;54250;45.572;38.086;2022-07-29T11:28:18;3.33;;;2.42;;
67363;SDS011;54250;45.572;38.086;2022-07-29T11:30:48;3.28;;;1.98;;
67363;SDS011;54250;45.572;38.086;2022-07-29T11:33:32;4.93;;;2.05;;
67363;SDS011;54250;45.572;38.086;2022-07-29T11:36:14;13.13;;;2.63;;
67363;SDS011;54250;45.572;38.086;2022-07-29T11:38:41;4.47;;;2.40;;
67363;SDS011;54250;45.572;38.086;2022-07-29T11:43:53;4.10;;;2.30;;
67363;SDS011;54250;45.572;38.086;2022-07-29T11:49:19;2.92;;;2.45;;
67363;SDS011;54250;45.572;38.086;2022-07-29T11:51:56;8.13;;;2.45;;
67363;SDS011;54250;45.572;38.086;2022-07-29T11:54:30;6.28;;;2.40;;
67363;SDS011;54250;45.572;38.086;2022-07-29T11:56:58;3.42;;;2.33;;
67363;SDS011;54250;45.572;38.086;2022-07-29T11:59:25;5.55;;;2.20;;
67363;SDS011;54250;45.572;38.086;2022-07-29T12:01:53;10.45;;;2.72;;
67363;SDS011;54250;45.572;38.086;2022-07-29T12:04:22;2.72;;;2.15;;
67363;SDS011;54250;45.572;38.086;2022-07-29T12:06:52;3.92;;;2.38;;
67363;SDS011;54250;45.572;38.086;2022-07-29T12:09:20;6.82;;;2.53;;
67363;SDS011;54250;45.572;38.086;2022-07-29T12:11:47;7.40;;;2.30;;
67363;SDS011;54250;45.572;38.086;2022-07-29T12:14:29;5.25;;;2.35;;
67363;SDS011;54250;45.572;38.086;2022-07-29T12:16:57;3.05;;;2.58;;
67363;SDS011;54250;45.572;38.086;2022-07-29T12:19:24;13.10;;;2.70;;
67363;SDS011;54250;45.572;38.086;2022-07-29T12:21:53;7.90;;;2.95;;
67363;SDS011;54250;45.572;38.086;2022-07-29T12:24:20;4.68;;;2.53;;
67363;SDS011;54250;45.572;38.086;2022-07-29T12:26:54;4.65;;;2.80;;
67363;SDS011;54250;45.572;38.086;2022-07-29T12:29:21;6.72;;;2.75;;
67363;SDS011;54250;45.572;38.086;2022-07-29T12:31:52;13.10;;;3.13;;
67363;SDS011;54250;45.572;38.086;2022-07-29T12:34:22;4.30;;;2.38;;
67363;SDS011;54250;45.572;38.086;2022-07-29T12:36:49;3.58;;;2.40;;
67363;SDS011;54250;45.572;38.086;2022-07-29T12:39:16;5.35;;;3.22;;
67363;SDS011;54250;45.572;38.086;2022-07-29T12:41:43;3.75;;;2.53;;
67363;SDS011;54250;45.572;38.086;2022-07-29T12:44:09;9.32;;;2.67;;
67363;SDS011;54250;45.572;38.086;2022-07-29T12:46:36;4.32;;;2.40;;
67363;SDS011;54250;45.572;38.086;2022-07-29T12:49:03;9.23;;;2.67;;
67363;SDS011;54250;45.572;38.086;2022-07-29T12:54:15;4.00;;;2.70;;
67363;SDS011;54250;45.572;38.086;2022-07-29T12:56:42;6.90;;;2.90;;
67363;SDS011;54250;45.572;38.086;2022-07-29T13:01:43;3.95;;;2.38;;
67363;SDS011;54250;45.572;38.086;2022-07-29T13:04:13;5.82;;;3.13;;
67363;SDS011;54250;45.572;38.086;2022-07-29T13:06:57;2.70;;;2.45;;
67363;SDS011;54250;45.572;38.086;2022-07-29T13:09:38;6.05;;;2.50;;
67363;SDS011;54250;45.572;38.086;2022-07-29T13:12:13;4.47;;;2.97;;
67363;SDS011;54250;45.572;38.086;2022-07-29T13:14:40;9.40;;;3.15;;
67363;SDS011;54250;45.572;38.086;2022-07-29T13:17:14;8.82;;;3.33;;
67363;SDS011;54250;45.572;38.086;2022-07-29T13:19:51;7.88;;;2.70;;
67363;SDS011;54250;45.572;38.086;2022-07-29T13:22:20;9.68;;;2.80;;
67363;SDS011;54250;45.572;38.086;2022-07-29T13:24:51;3.17;;;2.80;;
67363;SDS011;54250;45.572;38.086;2022-07-29T13:27:25;4.60;;;2.90;;
67363;SDS011;54250;45.572;38.086;2022-07-29T13:29:53;11.75;;;3.17;;
67363;SDS011;54250;45.572;38.086;2022-07-29T13:32:22;5.55;;;3.47;;
67363;SDS011;54250;45.572;38.086;2022-07-29T13:34:50;3.70;;;3.25;;
67363;SDS011;54250;45.572;38.086;2022-07-29T13:37:17;5.13;;;3.47;;
67363;SDS011;54250;45.572;38.086;2022-07-29T13:39:44;7.85;;;3.65;;
67363;SDS011;54250;45.572;38.086;2022-07-29T13:42:10;7.50;;;3.35;;
67363;SDS011;54250;45.572;38.086;2022-07-29T13:44:39;15.82;;;4.30;;
67363;SDS011;54250;45.572;38.086;2022-07-29T13:47:06;11.70;;;4.40;;
67363;SDS011;54250;45.572;38.086;2022-07-29T13:49:33;14.88;;;4.30;;
67363;SDS011;54250;45.572;38.086;2022-07-29T13:51:59;19.13;;;4.40;;
67363;SDS011;54250;45.572;38.086;2022-07-29T13:54:26;7.57;;;4.47;;
67363;SDS011;54250;45.572;38.086;2022-07-29T13:56:52;7.70;;;4.28;;
67363;SDS011;54250;45.572;38.086;2022-07-29T13:59:18;11.38;;;4.35;;
67363;SDS011;54250;45.572;38.086;2022-07-29T14:01:44;9.30;;;3.97;;
67363;SDS011;54250;45.572;38.086;2022-07-29T14:04:10;10.18;;;4.82;;
67363;SDS011;54250;45.572;38.086;2022-07-29T14:06:37;11.43;;;4.60;;
67363;SDS011;54250;45.572;38.086;2022-07-29T14:09:03;6.78;;;4.45;;
67363;SDS011;54250;45.572;38.086;2022-07-29T14:11:36;8.43;;;4.60;;
67363;SDS011;54250;45.572;38.086;2022-07-29T14:14:03;9.75;;;4.43;;
67363;SDS011;54250;45.572;38.086;2022-07-29T14:16:30;17.27;;;4.47;;
67363;SDS011;54250;45.572;38.086;2022-07-29T14:18:56;8.05;;;4.63;;
67363;SDS011;54250;45.572;38.086;2022-07-29T14:21:22;16.13;;;6.18;;
67363;SDS011;54250;45.572;38.086;2022-07-29T14:23:48;7.90;;;4.28;;
67363;SDS011;54250;45.572;38.086;2022-07-29T14:26:14;8.57;;;4.18;;
67363;SDS011;54250;45.572;38.086;2022-07-29T14:28:40;12.18;;;4.22;;
67363;SDS011;54250;45.572;38.086;2022-07-29T14:31:06;8.35;;;5.30;;
67363;SDS011;54250;45.572;38.086;2022-07-29T14:33:33;10.48;;;4.45;;
67363;SDS011;54250;45.572;38.086;2022-07-29T14:35:59;10.18;;;4.85;;
67363;SDS011;54250;45.572;38.086;2022-07-29T14:38:25;5.95;;;3.85;;
67363;SDS011;54250;45.572;38.086;2022-07-29T14:40:51;16.50;;;4.40;;
67363;SDS011;54250;45.572;38.086;2022-07-29T14:43:17;8.52;;;4.30;;
67363;SDS011;54250;45.572;38.086;2022-07-29T14:45:43;6.35;;;3.92;;
67363;SDS011;54250;45.572;38.086;2022-07-29T14:48:09;8.05;;;4.93;;
67363;SDS011;54250;45.572;38.086;2022-07-29T14:50:37;21.42;;;5.15;;
67363;SDS011;54250;45.572;38.086;2022-07-29T14:53:03;9.10;;;4.07;;
67363;SDS011;54250;45.572;38.086;2022-07-29T14:55:30;8.07;;;4.60;;
67363;SDS011;54250;45.572;38.086;2022-07-29T14:57:56;9.18;;;4.85;;
67363;SDS011;54250;45.572;38.086;2022-07-29T15:00:22;8.43;;;4.68;;
67363;SDS011;54250;45.572;38.086;2022-07-29T15:02:48;11.43;;;4.93;;
67363;SDS011;54250;45.572;38.086;2022-07-29T15:05:14;9.23;;;4.45;;
67363;SDS011;54250;45.572;38.086;2022-07-29T15:07:40;7.50;;;4.78;;
67363;SDS011;54250;45.572;38.086;2022-07-29T15:10:06;14.35;;;4.60;;
67363;SDS011;54250;45.572;38.086;2022-07-29T15:12:33;8.85;;;5.05;;
67363;SDS011;54250;45.572;38.086;2022-07-29T15:14:59;16.70;;;4.78;;
67363;SDS011;54250;45.572;38.086;2022-07-29T15:17:25;10.85;;;4.72;;
67363;SDS011;54250;45.572;38.086;2022-07-29T15:19:51;15.48;;;5.57;;
67363;SDS011;54250;45.572;38.086;2022-07-29T15:22:17;7.85;;;4.70;;
67363;SDS011;54250;45.572;38.086;2022-07-29T15:24:44;8.77;;;4.68;;
67363;SDS011;54250;45.572;38.086;2022-07-29T15:27:10;11.18;;;5.07;;
67363;SDS011;54250;45.572;38.086;2022-07-29T15:29:42;11.82;;;4.95;;
67363;SDS011;54250;45.572;38.086;2022-07-29T15:32:09;11.15;;;4.80;;
67363;SDS011;54250;45.572;38.086;2022-07-29T15:34:36;8.52;;;5.43;;